createdAt,value
2022-11-16T00:02:13.524Z,100918.78
2022-11-16T00:08:19.811Z,100693.16
2022-11-16T00:16:07.202Z,100677.13
2022-11-16T00:20:37.402Z,100760.69
2022-11-16T01:56:55.110Z,100843.72
2022-11-16T03:40:09.371Z,100729.28
2022-11-16T06:03:51.488Z,100469.22
2022-11-16T06:09:34.414Z,100634.09
2022-11-16T06:21:43.258Z,100421.69
2022-11-16T06:26:48.546Z,100354.88
2022-11-16T06:32:23.627Z,100417.06
2022-11-16T06:37:17.152Z,100623.53
2022-11-16T06:42:11.872Z,100610.25
2022-11-16T06:47:05.415Z,100575.03
2022-11-16T06:51:59.841Z,100544.25
2022-11-16T06:56:53.726Z,100570.13
2022-11-16T07:01:49.584Z,100564.28
2022-11-16T07:06:42.864Z,100522.84
2022-11-16T07:11:37.077Z,100553.50
2022-11-16T07:16:30.744Z,100586.78
2022-11-16T07:21:29.080Z,100546.56
2022-11-16T07:26:23.993Z,100590.22
2022-11-16T07:31:22.491Z,100554.16
2022-11-16T07:36:37.469Z,100579.66
2022-11-16T07:41:30.870Z,100580.38
2022-11-16T07:46:48.180Z,100572.19
2022-11-16T07:51:44.594Z,100564.19
2022-11-16T07:56:58.161Z,100577.34
2022-11-16T08:01:51.517Z,100558.88
2022-11-16T08:06:47.007Z,100517.75
2022-11-16T08:11:40.725Z,100569.41
2022-11-16T08:16:34.255Z,100567.47
2022-11-16T08:21:35.421Z,100557.34
2022-11-16T08:26:30.473Z,100489.34
2022-11-16T08:31:30.375Z,100390.75
2022-11-16T08:36:35.674Z,100552.13
2022-11-16T08:41:31.346Z,100550.13
2022-11-16T08:46:28.755Z,100545.47
2022-11-16T08:51:31.543Z,100540.28
2022-11-16T08:56:31.314Z,100495.56
2022-11-16T09:01:27.070Z,100466.78
2022-11-16T09:06:20.651Z,100532.06
2022-11-16T09:11:17.069Z,100524.91
2022-11-16T09:16:12.127Z,100504.97
2022-11-16T09:21:06.077Z,100497.56
2022-11-16T09:26:02.733Z,100512.25
2022-11-16T09:31:00.226Z,100454.69
2022-11-16T09:35:54.901Z,100512.47
2022-11-16T09:40:50.368Z,100490.97
2022-11-16T09:45:53.978Z,100492.19
2022-11-16T09:50:50.754Z,100457.03
2022-11-16T09:55:50.713Z,100448.50
2022-11-16T10:00:48.698Z,100462.53
2022-11-16T10:05:47.765Z,100402.19
2022-11-16T10:10:48.615Z,100397.41
2022-11-16T10:15:51.683Z,100442.47
2022-11-16T10:20:59.841Z,100423.31
2022-11-16T10:25:59.214Z,100415.41
2022-11-16T10:30:59.837Z,100395.53
2022-11-16T10:35:54.288Z,100387.94
2022-11-16T10:40:51.171Z,100337.38
2022-11-16T10:45:51.623Z,100399.84
2022-11-16T10:50:47.110Z,100396.81
2022-11-16T10:55:40.737Z,100373.66
2022-11-16T11:00:37.161Z,100391.84
2022-11-16T11:05:32.296Z,100382.47
2022-11-16T11:10:30.624Z,100376.84
2022-11-16T11:15:27.158Z,100317.25
2022-11-16T11:20:24.373Z,100362.53
2022-11-16T11:25:25.214Z,100341.31
2022-11-16T11:30:21.222Z,100253.78
2022-11-16T11:35:24.785Z,100310.25
2022-11-16T11:40:24.687Z,100344.22
2022-11-16T11:45:19.068Z,100319.22
2022-11-16T11:50:17.457Z,100339.66
2022-11-16T11:55:18.206Z,100344.34
2022-11-16T12:00:17.718Z,100258.53
2022-11-16T12:06:01.207Z,100327.91
2022-11-16T12:10:58.706Z,100316.03
2022-11-16T12:16:06.523Z,100263.78
2022-11-16T12:21:04.958Z,100302.84
2022-11-16T12:26:16.516Z,100288.50
2022-11-16T12:31:44.873Z,100267.34
2022-11-16T12:36:48.539Z,100263.31
2022-11-16T12:42:18.373Z,100242.03
2022-11-16T12:47:25.223Z,100279.00
2022-11-16T12:52:38.568Z,100279.47
2022-11-16T12:57:41.008Z,100275.00
2022-11-16T13:03:05.170Z,100196.78
2022-11-16T13:08:04.786Z,100266.09
2022-11-16T13:18:22.637Z,100240.13
2022-11-16T13:23:24.679Z,100210.63
2022-11-16T13:28:33.196Z,100198.28
2022-11-16T13:33:43.972Z,100228.13
2022-11-16T13:38:52.409Z,100247.25
2022-11-16T13:43:49.440Z,100233.59
2022-11-16T13:48:46.947Z,100237.97
2022-11-16T13:59:01.092Z,100178.13
2022-11-16T14:04:34.081Z,100218.16
2022-11-16T14:09:45.929Z,100087.41
2022-11-16T14:15:12.355Z,100121.69
2022-11-16T14:21:26.283Z,100114.53
2022-11-16T14:26:24.131Z,99901.91
2022-11-16T14:31:32.119Z,100132.41
2022-11-16T14:36:51.368Z,100194.28
2022-11-16T14:42:24.004Z,99950.34
2022-11-16T14:47:30.679Z,99945.72
2022-11-16T14:52:43.870Z,99951.22
2022-11-16T14:58:14.723Z,100056.56
2022-11-16T15:03:27.019Z,100155.16
2022-11-16T15:20:04.225Z,100062.75
2022-11-16T15:31:10.968Z,100153.38
2022-11-16T15:37:05.894Z,100181.31
2022-11-16T15:41:58.792Z,99915.81
2022-11-16T15:47:23.463Z,99979.63
2022-11-16T15:52:57.861Z,100101.81
2022-11-16T15:58:31.368Z,99933.16
2022-11-16T16:03:30.333Z,100171.56
2022-11-16T16:08:39.846Z,99920.56
2022-11-16T16:14:10.786Z,100028.09
2022-11-16T16:19:58.937Z,100047.50
2022-11-16T16:30:41.174Z,100158.88
2022-11-16T17:54:40.052Z,100074.56
2022-11-16T17:59:47.334Z,99871.22
2022-11-16T18:05:14.940Z,99948.13
2022-11-16T18:10:36.285Z,99944.22
2022-11-16T18:16:05.317Z,100090.88
2022-11-16T18:21:03.698Z,99880.97
2022-11-16T18:26:04.934Z,99853.50
2022-11-16T18:31:12.662Z,99848.34
2022-11-16T18:36:28.373Z,100071.66
2022-11-16T18:41:27.208Z,100075.72
2022-11-16T18:46:26.937Z,99943.13
2022-11-16T18:51:44.064Z,99989.09
2022-11-16T18:56:49.169Z,99875.94
2022-11-16T19:02:22.005Z,99861.22
2022-11-16T19:08:05.803Z,99927.47
2022-11-16T19:27:29.395Z,99847.31
2022-11-16T19:32:41.051Z,100060.03
2022-11-16T19:37:53.574Z,100034.13
2022-11-16T19:42:54.246Z,99840.41
2022-11-16T19:47:53.995Z,99844.25
2022-11-16T19:52:51.521Z,99949.50
2022-11-16T19:57:50.730Z,100000.16
2022-11-16T20:03:24.673Z,100039.25
2022-11-16T20:08:58.627Z,100055.22
2022-11-16T20:14:13.351Z,99823.75
2022-11-16T20:19:43.590Z,99990.59
2022-11-16T20:30:44.027Z,100025.84
2022-11-16T20:48:38.101Z,99978.25
2022-11-16T20:53:39.679Z,100015.13
2022-11-16T20:58:38.296Z,99807.22
2022-11-16T21:03:36.027Z,99961.03
2022-11-16T21:08:34.108Z,100025.91
2022-11-16T21:13:48.555Z,99904.88
2022-11-16T21:19:01.742Z,99910.31
2022-11-16T21:24:03.070Z,100033.47
2022-11-16T21:28:58.180Z,100000.69
2022-11-16T21:34:13.107Z,99800.94
2022-11-16T21:39:06.717Z,100033.97
2022-11-16T21:44:05.936Z,99968.53
2022-11-16T21:50:00.826Z,99843.69
2022-11-16T21:55:00.575Z,99763.34
2022-11-16T21:59:57.166Z,99830.00
2022-11-16T22:05:09.680Z,100028.13
2022-11-16T22:10:12.789Z,100022.56
2022-11-16T22:15:15.970Z,99775.88
2022-11-16T22:20:14.687Z,99969.28
2022-11-16T22:25:14.566Z,100017.38
2022-11-16T22:30:11.997Z,99912.13
2022-11-16T22:35:06.241Z,99926.81
2022-11-16T22:40:01.198Z,99991.59
2022-11-16T22:45:00.549Z,99965.28
2022-11-16T22:49:54.237Z,99794.34
2022-11-16T22:54:50.400Z,99987.94
2022-11-16T23:00:28.937Z,99770.41
2022-11-16T23:05:27.189Z,99781.19
2022-11-16T23:10:23.286Z,99752.97
2022-11-16T23:15:44.847Z,99887.06
2022-11-16T23:20:57.332Z,99744.88
2022-11-16T23:26:07.918Z,99820.91
2022-11-16T23:31:01.431Z,99912.97
2022-11-16T23:35:56.886Z,99847.59
2022-11-16T23:40:50.306Z,99727.41
2022-11-16T23:45:49.491Z,99678.19
2022-11-16T23:51:41.109Z,99782.81
2022-11-16T23:56:34.591Z,99715.25
